Time;durP1;ratioP1;P1;durP2;ratioP2;P2;SDS_P1;SDS_P2;PMS_P1;PMS_P2;Temp;Humidity;BMP_temperature;BMP_pressure;BME280_temperature;BME280_humidity;BME280_pressure;Samples;Min_cycle;Max_cycle;Signal;HPM_P1;HPM_P2
2023/05/26 00:01:57;;;;;;;4.00;3.80;;;;;;;19.76;78.69;99406.59;5071242;28;20261;-65
2023/05/26 00:04:25;;;;;;;4.37;3.97;;;;;;;19.63;78.82;99395.41;5065204;28;20258;-65
2023/05/26 00:06:52;;;;;;;4.73;4.33;;;;;;;19.57;79.04;99404.53;5051682;28;20228;-65
2023/05/26 00:09:19;;;;;;;4.03;3.83;;;;;;;19.42;79.53;99399.81;5050987;28;20235;-66
2023/05/26 00:11:46;;;;;;;4.30;4.10;;;;;;;19.38;79.68;99390.63;5065702;28;20670;-65
2023/05/26 00:14:14;;;;;;;5.63;4.67;;;;;;;19.29;80.70;99391.34;5070389;28;20223;-65
2023/05/26 00:16:42;;;;;;;19.80;5.13;;;;;;;19.24;81.44;99388.59;5071678;28;20196;-66
2023/05/26 00:19:09;;;;;;;28.37;6.77;;;;;;;19.25;81.11;99395.59;5071037;28;20197;-65
2023/05/26 00:21:37;;;;;;;8.57;4.03;;;;;;;19.30;81.27;99401.84;5071323;28;20194;-66
2023/05/26 00:24:05;;;;;;;5.33;4.53;;;;;;;19.31;81.00;99402.66;5071026;28;20219;-66
2023/05/26 00:26:32;;;;;;;6.33;4.13;;;;;;;19.31;81.12;99399.94;5070772;28;20286;-65
2023/05/26 00:29:00;;;;;;;5.33;4.23;;;;;;;19.28;81.79;99393.19;5072779;28;20275;-66
2023/05/26 00:31:26;;;;;;;4.47;4.07;;;;;;;19.27;82.41;99404.22;5074273;28;20196;-66
2023/05/26 00:33:54;;;;;;;4.53;4.23;;;;;;;19.14;82.63;99397.34;5075144;28;20229;-65
2023/05/26 00:36:21;;;;;;;5.03;4.57;;;;;;;19.07;82.51;99396.72;5074818;28;20595;-65
2023/05/26 00:38:48;;;;;;;4.70;4.27;;;;;;;19.02;82.51;99404.75;5074189;28;20739;-65
2023/05/26 00:41:15;;;;;;;4.27;3.90;;;;;;;18.93;83.23;99406.28;5074237;28;20202;-65
2023/05/26 00:43:42;;;;;;;4.53;4.23;;;;;;;18.82;83.27;99404.50;5074370;28;20609;-65
2023/05/26 00:46:08;;;;;;;4.77;4.40;;;;;;;18.68;84.96;99397.06;5075013;28;20243;-65
2023/05/26 00:48:35;;;;;;;6.27;4.43;;;;;;;18.70;84.30;99401.13;5073952;28;20683;-66
2023/05/26 00:51:03;;;;;;;4.33;3.93;;;;;;;18.65;84.47;99408.31;5073845;28;20192;-65
2023/05/26 00:53:30;;;;;;;7.87;4.50;;;;;;;18.61;84.35;99407.19;5073812;28;20201;-67
2023/05/26 00:55:57;;;;;;;4.33;3.97;;;;;;;18.56;84.98;99404.44;5074648;28;20646;-65
2023/05/26 00:58:25;;;;;;;3.70;3.40;;;;;;;18.62;85.43;99408.84;5074284;28;20637;-65
2023/05/26 01:00:52;;;;;;;4.10;3.47;;;;;;;18.68;84.97;99405.16;5073794;28;20664;-65
2023/05/26 01:03:19;;;;;;;3.97;3.67;;;;;;;18.75;84.62;99405.78;5074578;28;20196;-64
2023/05/26 01:05:46;;;;;;;4.00;3.67;;;;;;;18.77;83.89;99403.63;5056696;28;20286;-65
2023/05/26 01:08:14;;;;;;;3.87;3.50;;;;;;;18.76;85.94;99399.31;5054485;28;20271;-65
2023/05/26 01:10:41;;;;;;;4.20;4.00;;;;;;;18.72;84.35;99403.56;5071062;28;20237;-65
2023/05/26 01:13:13;;;;;;;4.23;3.93;;;;;;;18.61;84.39;99399.13;5073960;28;20202;-64
2023/05/26 01:15:46;;;;;;;4.37;4.07;;;;;;;18.43;84.85;99405.66;5074090;28;20215;-65
2023/05/26 01:18:16;;;;;;;4.40;4.00;;;;;;;18.29;85.01;99403.53;5074585;28;20229;-64
2023/05/26 01:20:48;;;;;;;3.97;3.67;;;;;;;18.16;85.79;99401.16;5073617;28;20275;-64
2023/05/26 01:23:46;;;;;;;4.37;4.00;;;;;;;18.14;87.54;99400.59;5073855;28;20686;-65
2023/05/26 01:26:38;;;;;;;3.80;3.60;;;;;;;18.23;86.34;99405.31;5073850;28;20572;-64
2023/05/26 01:29:11;;;;;;;7.07;3.90;;;;;;;17.97;86.20;99356.81;5072185;28;20187;-65
2023/05/26 01:31:39;;;;;;;4.40;4.00;;;;;;;18.35;85.99;99407.94;5073829;28;20184;-65
2023/05/26 01:34:05;;;;;;;4.43;4.03;;;;;;;18.37;85.78;99406.63;5074462;28;20286;-64
2023/05/26 01:36:32;;;;;;;4.47;4.07;;;;;;;18.36;85.86;99404.16;5074365;28;20281;-64
2023/05/26 01:39:00;;;;;;;4.33;3.93;;;;;;;18.26;86.62;99399.44;5072726;28;20251;-65
2023/05/26 01:41:32;;;;;;;5.63;3.97;;;;;;;18.20;86.37;99402.28;5073613;28;20192;-65
2023/05/26 01:44:02;;;;;;;4.47;4.27;;;;;;;18.16;85.96;99403.84;5073415;28;20189;-65
2023/05/26 01:46:39;;;;;;;6.10;4.83;;;;;;;18.12;86.50;99405.41;5072856;28;20196;-65
2023/05/26 01:49:08;;;;;;;5.00;4.70;;;;;;;18.13;85.53;99407.06;5072279;28;20180;-67
2023/05/26 01:51:36;;;;;;;4.57;4.27;;;;;;;18.03;85.49;99406.88;5072948;28;20664;-66
2023/05/26 01:54:08;;;;;;;7.83;4.80;;;;;;;17.94;85.48;99416.44;5073300;28;20227;-65
2023/05/26 01:56:37;;;;;;;5.00;4.73;;;;;;;17.87;86.85;99415.75;5073751;28;20191;-66
2023/05/26 01:59:04;;;;;;;6.20;5.63;;;;;;;17.84;87.15;99414.38;5072705;28;20221;-64
2023/05/26 02:01:34;;;;;;;5.73;5.30;;;;;;;17.85;85.88;99418.69;5073228;28;20660;-65
2023/05/26 02:04:01;;;;;;;5.70;4.97;;;;;;;17.80;85.79;99415.13;5069671;28;20572;-65
2023/05/26 02:06:28;;;;;;;5.90;5.47;;;;;;;17.77;85.61;99415.63;5053531;28;20196;-64
2023/05/26 02:08:54;;;;;;;5.53;5.23;;;;;;;17.72;87.13;99412.84;5065635;28;20246;-65
2023/05/26 02:11:21;;;;;;;5.70;5.27;;;;;;;17.56;87.26;99402.91;5072855;28;20197;-65
2023/05/26 02:13:48;;;;;;;5.10;4.67;;;;;;;17.67;86.77;99431.56;5072104;28;20411;-66
2023/05/26 02:16:15;;;;;;;4.57;4.33;;;;;;;17.67;87.43;99420.81;5072955;28;20274;-65
2023/05/26 02:18:45;;;;;;;5.77;4.93;;;;;;;17.74;86.63;99427.66;5072743;28;20193;-65
2023/05/26 02:21:12;;;;;;;7.17;5.33;;;;;;;17.83;86.20;99430.75;5073193;28;20194;-65
2023/05/26 02:23:39;;;;;;;5.80;5.30;;;;;;;17.86;84.86;99432.97;5072603;28;20659;-65
2023/05/26 02:26:06;;;;;;;5.17;4.73;;;;;;;17.80;85.72;99433.94;5072432;28;20192;-65
2023/05/26 02:28:32;;;;;;;6.23;5.27;;;;;;;17.79;86.18;99421.53;5072992;28;20249;-64
2023/05/26 02:30:59;;;;;;;5.23;4.83;;;;;;;17.80;85.22;99429.38;5072569;28;20196;-65
2023/05/26 02:33:26;;;;;;;5.70;5.30;;;;;;;17.85;86.13;99423.28;5071871;28;20589;-64
2023/05/26 02:35:54;;;;;;;6.60;4.87;;;;;;;17.83;86.06;99426.19;5072717;28;20600;-64
2023/05/26 02:38:22;;;;;;;9.33;5.00;;;;;;;17.82;85.69;99418.38;5072397;28;20253;-65
2023/05/26 02:40:49;;;;;;;10.27;5.30;;;;;;;17.79;85.34;99424.22;5072610;28;20188;-65
2023/05/26 02:43:16;;;;;;;10.33;4.90;;;;;;;17.73;86.12;99422.53;5072045;28;20196;-65
2023/05/26 02:45:42;;;;;;;13.00;4.70;;;;;;;17.77;85.38;99426.38;5071618;28;20584;-65
2023/05/26 02:48:09;;;;;;;8.03;4.80;;;;;;;17.84;86.02;99437.78;5072131;28;20237;-65
2023/05/26 02:50:36;;;;;;;9.07;5.30;;;;;;;17.82;86.32;99438.00;5070359;28;20628;-65
2023/05/26 02:53:04;;;;;;;12.40;4.83;;;;;;;17.91;85.09;99449.16;5071990;28;20184;-65
2023/05/26 02:55:31;;;;;;;5.77;4.67;;;;;;;17.85;85.07;99439.41;5071911;28;20609;-65
2023/05/26 02:57:57;;;;;;;6.33;4.53;;;;;;;17.89;85.85;99445.91;5071241;28;20245;-66
2023/05/26 03:00:24;;;;;;;8.33;4.57;;;;;;;17.95;85.32;99445.75;5072328;28;20192;-66
2023/05/26 03:02:51;;;;;;;8.67;5.20;;;;;;;17.96;84.90;99447.38;5071413;28;20557;-66
2023/05/26 03:05:18;;;;;;;10.63;5.47;;;;;;;17.98;84.99;99449.81;5072173;28;20203;-64
2023/05/26 03:07:44;;;;;;;5.40;5.00;;;;;;;17.93;84.56;99452.44;5072293;28;20298;-64
2023/05/26 03:10:12;;;;;;;5.77;5.23;;;;;;;17.93;85.37;99447.06;5072223;28;20239;-64
2023/05/26 03:12:40;;;;;;;8.27;5.20;;;;;;;17.85;85.57;99447.47;5071563;28;20258;-65
2023/05/26 03:15:08;;;;;;;5.73;5.10;;;;;;;17.81;86.15;99446.31;5072077;28;20265;-65
2023/05/26 03:17:34;;;;;;;5.50;4.93;;;;;;;17.60;87.02;99430.91;5072252;28;20249;-65
2023/05/26 03:20:01;;;;;;;5.70;5.20;;;;;;;17.72;86.59;99456.63;5071133;28;20192;-66
2023/05/26 03:22:28;;;;;;;9.60;5.20;;;;;;;17.73;85.82;99463.63;5071230;28;20192;-64
2023/05/26 03:24:54;;;;;;;8.87;5.20;;;;;;;17.74;86.51;99459.09;5071361;28;20249;-64
2023/05/26 03:27:23;;;;;;;6.37;4.80;;;;;;;17.77;87.18;99453.22;5071938;28;20198;-64
2023/05/26 03:29:50;;;;;;;11.73;6.33;;;;;;;17.72;86.83;99455.84;5071594;28;20193;-65
2023/05/26 03:32:17;;;;;;;8.00;5.40;;;;;;;17.61;86.38;99459.41;5071441;28;20192;-64
2023/05/26 03:34:44;;;;;;;7.07;5.90;;;;;;;17.51;87.16;99451.97;5071164;28;20253;-64
2023/05/26 03:37:11;;;;;;;6.97;6.33;;;;;;;17.39;87.89;99450.38;5071696;28;20195;-65
2023/05/26 03:39:38;;;;;;;8.60;5.93;;;;;;;17.39;88.67;99447.69;5071459;28;20286;-65
2023/05/26 03:42:06;;;;;;;6.00;5.50;;;;;;;17.42;88.25;99455.28;5069949;28;20256;-64
2023/05/26 03:44:34;;;;;;;14.73;7.97;;;;;;;17.35;88.25;99443.88;5070642;28;20191;-64
2023/05/26 03:47:01;;;;;;;6.67;6.00;;;;;;;17.31;88.05;99445.41;5071963;28;20286;-64
2023/05/26 03:49:28;;;;;;;8.93;6.57;;;;;;;17.31;88.10;99448.09;5071983;28;20196;-64
2023/05/26 03:51:54;;;;;;;15.23;6.87;;;;;;;17.31;88.67;99448.09;5071297;28;20200;-65
2023/05/26 03:54:21;;;;;;;13.97;6.77;;;;;;;17.35;89.96;99446.53;5071123;28;20195;-66
2023/05/26 03:56:48;;;;;;;11.33;6.40;;;;;;;17.43;89.02;99452.34;5071083;28;20290;-65
2023/05/26 03:59:14;;;;;;;17.83;5.90;;;;;;;17.54;88.32;99456.88;5070185;28;20680;-64
2023/05/26 04:01:43;;;;;;;13.03;6.13;;;;;;;17.51;86.73;99460.03;5071747;28;20192;-64
2023/05/26 04:04:09;;;;;;;7.07;6.20;;;;;;;17.45;86.58;99449.44;5068789;28;20254;-63
2023/05/26 04:06:37;;;;;;;13.13;6.13;;;;;;;17.37;86.77;99453.31;5055123;28;20196;-64
2023/05/26 04:09:04;;;;;;;11.43;6.00;;;;;;;17.37;87.70;99455.16;5055206;28;20629;-67
2023/05/26 04:11:31;;;;;;;14.17;6.80;;;;;;;17.45;88.26;99457.50;5055021;28;20741;-65
2023/05/26 04:13:58;;;;;;;6.70;6.07;;;;;;;17.63;88.34;99459.97;5072349;28;20232;-66
2023/05/26 04:16:25;;;;;;;5.77;5.23;;;;;;;17.85;86.07;99474.34;5075204;28;20216;-65
2023/05/26 04:18:53;;;;;;;10.80;5.83;;;;;;;17.85;84.86;99463.59;5075519;28;20195;-65
2023/05/26 04:21:20;;;;;;;6.57;5.87;;;;;;;17.88;84.58;99465.78;5073737;28;20225;-65
2023/05/26 04:23:51;;;;;;;11.13;6.37;;;;;;;18.05;85.12;99471.97;5073645;28;20188;-65
2023/05/26 04:26:18;;;;;;;15.30;6.80;;;;;;;18.22;84.38;99473.59;5073432;28;20196;-65
2023/05/26 04:28:45;;;;;;;75.93;9.73;;;;;;;18.30;83.76;99475.84;5075064;28;20268;-65
2023/05/26 04:31:13;;;;;;;34.17;7.80;;;;;;;18.34;82.37;99474.34;5074261;28;20228;-66
2023/05/26 04:33:40;;;;;;;49.10;25.33;;;;;;;18.30;82.38;99480.44;5074971;28;20281;-66
2023/05/26 04:36:09;;;;;;;11.70;6.17;;;;;;;18.38;81.98;99474.69;5074981;28;20307;-66
2023/05/26 04:38:36;;;;;;;9.03;3.93;;;;;;;18.60;85.38;99459.38;5064001;28;20247;-65
2023/05/26 04:41:06;;;;;;;16.47;5.30;;;;;;;19.10;80.06;99478.88;5070839;28;20226;-65
2023/05/26 04:43:34;;;;;;;7.80;4.70;;;;;;;19.40;77.90;99487.34;5074544;28;20184;-67
2023/05/26 04:46:02;;;;;;;12.90;4.60;;;;;;;19.69;76.45;99497.63;5063232;28;20682;-65
2023/05/26 04:48:29;;;;;;;20.30;5.20;;;;;;;19.88;75.37;99495.38;5065027;28;20219;-66
2023/05/26 04:50:55;;;;;;;7.10;4.07;;;;;;;19.96;74.39;99500.28;5064620;28;20193;-65
2023/05/26 04:53:23;;;;;;;45.50;7.10;;;;;;;19.96;73.79;99503.81;5063423;28;20717;-65
2023/05/26 04:55:50;;;;;;;33.27;6.33;;;;;;;19.90;76.34;99487.84;5071502;28;20262;-67
2023/05/26 04:58:17;;;;;;;4.97;4.33;;;;;;;19.95;73.44;99501.38;5073608;28;20725;-68
2023/05/26 05:00:44;;;;;;;16.23;4.90;;;;;;;19.92;73.80;99496.47;5062125;28;20253;-67
2023/05/26 05:03:10;;;;;;;9.87;4.20;;;;;;;20.20;74.48;99498.91;5063777;28;20229;-66
2023/05/26 05:05:37;;;;;;;5.77;4.30;;;;;;;20.39;72.75;99503.66;5064677;28;20199;-66
2023/05/26 05:08:04;;;;;;;16.53;6.00;;;;;;;20.29;72.45;99502.75;5070424;28;20626;-66
2023/05/26 05:10:32;;;;;;;20.47;6.10;;;;;;;20.17;73.01;99507.53;5063507;28;20188;-67
2023/05/26 05:13:00;;;;;;;13.87;4.40;;;;;;;20.19;74.52;99500.81;5063661;28;20222;-68
2023/05/26 05:15:26;;;;;;;12.87;4.90;;;;;;;20.58;73.37;99501.34;5062973;28;20273;-69
2023/05/26 05:17:54;;;;;;;9.27;5.00;;;;;;;20.52;69.67;99500.53;5062889;28;20188;-69
2023/05/26 05:20:21;;;;;;;25.43;5.20;;;;;;;20.29;70.10;99491.97;5064552;28;20184;-67
2023/05/26 05:22:47;;;;;;;10.10;4.83;;;;;;;20.28;70.28;99501.13;5070051;28;20664;-66
2023/05/26 05:25:14;;;;;;;11.17;4.30;;;;;;;20.21;72.78;99492.44;5073620;28;20253;-65
2023/05/26 05:27:42;;;;;;;9.07;5.47;;;;;;;20.47;70.53;99505.06;5074144;28;20196;-66
2023/05/26 05:30:11;;;;;;;10.07;5.23;;;;;;;20.49;70.76;99506.44;5074113;28;20277;-67
2023/05/26 05:32:38;;;;;;;13.33;4.70;;;;;;;20.35;70.34;99494.44;5073260;28;20766;-66
2023/05/26 05:35:05;;;;;;;7.80;4.27;;;;;;;20.35;71.17;99507.13;5073671;28;20188;-67
2023/05/26 05:37:32;;;;;;;26.93;7.03;;;;;;;20.47;70.83;99508.56;5073867;28;20249;-66
2023/05/26 05:39:58;;;;;;;12.13;5.20;;;;;;;20.56;70.48;99506.19;5073764;28;20716;-67
2023/05/26 05:42:25;;;;;;;5.37;4.93;;;;;;;20.74;70.98;99500.38;5072893;28;20192;-67
2023/05/26 05:44:53;;;;;;;5.20;4.57;;;;;;;20.82;69.55;99502.56;5069184;28;20196;-63
2023/05/26 05:47:20;;;;;;;6.27;4.07;;;;;;;21.11;70.73;99503.81;5070716;28;20638;-67
2023/05/26 05:49:46;;;;;;;9.67;4.27;;;;;;;21.36;69.02;99501.22;5069664;28;20269;-66
2023/05/26 05:52:14;;;;;;;9.03;4.87;;;;;;;21.46;66.73;99508.56;5069430;28;20254;-65
2023/05/26 05:54:41;;;;;;;4.80;4.30;;;;;;;21.50;66.72;99510.47;5070057;28;20188;-65
2023/05/26 05:57:07;;;;;;;8.97;4.67;;;;;;;21.42;66.17;99508.28;5068409;28;20228;-69
2023/05/26 05:59:34;;;;;;;10.37;4.97;;;;;;;21.30;67.43;99509.56;5069374;28;20192;-65
2023/05/26 06:02:02;;;;;;;9.67;4.60;;;;;;;21.22;68.16;99501.97;5072335;28;20184;-65
2023/05/26 06:04:29;;;;;;;35.67;6.40;;;;;;;21.21;68.24;99505.75;5073070;28;20230;-67
2023/05/26 06:06:55;;;;;;;6.73;4.20;;;;;;;21.02;68.70;99491.91;5072900;28;20256;-67
2023/05/26 06:09:22;;;;;;;9.43;4.80;;;;;;;20.99;69.47;99497.81;5073423;28;20195;-66
2023/05/26 06:11:49;;;;;;;8.53;4.13;;;;;;;20.90;70.00;99493.97;5071347;28;20191;-67
2023/05/26 06:14:16;;;;;;;7.60;4.30;;;;;;;20.85;69.89;99501.22;5072345;28;20264;-66
2023/05/26 06:16:42;;;;;;;14.90;4.73;;;;;;;20.84;70.06;99500.44;5070605;28;20216;-66
2023/05/26 06:19:10;;;;;;;5.97;3.80;;;;;;;20.80;71.33;99493.94;5070577;28;20249;-65
2023/05/26 06:21:37;;;;;;;13.53;4.73;;;;;;;20.83;71.40;99493.41;5063188;28;20254;-71
2023/05/26 06:24:04;;;;;;;15.20;5.07;;;;;;;20.82;71.58;99497.16;5065597;28;20196;-68
2023/05/26 06:26:31;;;;;;;24.03;5.60;;;;;;;20.88;71.87;99493.44;5065932;28;20200;-68
2023/05/26 06:28:57;;;;;;;8.60;4.13;;;;;;;20.91;71.04;99506.47;5068152;28;20203;-67
2023/05/26 06:31:25;;;;;;;10.07;4.83;;;;;;;20.92;71.77;99494.56;5068069;28;20281;-68
2023/05/26 06:33:54;;;;;;;12.70;5.60;;;;;;;20.93;71.27;99512.41;5066323;28;20230;-69
2023/05/26 06:36:23;;;;;;;10.07;4.93;;;;;;;20.99;71.65;99511.34;5067072;28;20216;-67
2023/05/26 06:38:49;;;;;;;12.00;5.20;;;;;;;21.10;70.69;99509.53;5068582;28;20203;-67
2023/05/26 06:41:16;;;;;;;12.70;5.43;;;;;;;21.19;70.77;99508.72;5066805;28;20200;-72
2023/05/26 06:43:43;;;;;;;6.90;5.10;;;;;;;21.20;70.89;99513.06;5066902;28;20578;-68
2023/05/26 06:46:09;;;;;;;16.50;5.43;;;;;;;21.25;71.16;99517.66;5068522;28;20192;-68
2023/05/26 06:48:36;;;;;;;23.40;5.80;;;;;;;21.26;71.51;99514.72;5068750;28;20222;-68
2023/05/26 06:51:03;;;;;;;9.07;4.67;;;;;;;21.17;69.80;99520.88;5068918;28;20204;-67
2023/05/26 06:53:31;;;;;;;5.83;5.00;;;;;;;21.16;70.14;99530.88;5068398;28;20249;-67
2023/05/26 06:55:58;;;;;;;4.77;4.17;;;;;;;21.26;70.02;99530.91;5068131;28;20723;-69
2023/05/26 06:58:24;;;;;;;6.03;4.13;;;;;;;21.27;70.06;99537.94;5068429;28;20200;-67
2023/05/26 07:00:58;;;;;;;5.10;4.53;;;;;;;21.08;69.74;99517.88;5068548;28;20196;-68
2023/05/26 07:03:26;;;;;;;4.10;3.80;;;;;;;21.32;69.56;99529.88;5067198;28;20253;-68
2023/05/26 07:05:53;;;;;;;5.50;3.93;;;;;;;21.68;69.05;99542.41;5067672;28;20192;-67
2023/05/26 07:08:20;;;;;;;7.43;4.00;;;;;;;21.91;67.67;99550.06;5068316;28;20255;-67
2023/05/26 07:10:48;;;;;;;19.33;4.43;;;;;;;22.14;67.40;99549.56;5068514;28;20200;-67
2023/05/26 07:13:15;;;;;;;11.37;4.00;;;;;;;22.45;66.63;99551.19;5068225;28;20630;-67
2023/05/26 07:15:41;;;;;;;12.40;4.00;;;;;;;22.91;65.78;99558.19;5067578;28;20652;-68
2023/05/26 07:18:08;;;;;;;8.93;3.70;;;;;;;23.30;62.61;99561.09;5067464;28;20659;-68
2023/05/26 07:20:35;;;;;;;7.50;3.67;;;;;;;23.46;60.96;99563.50;5068380;28;20317;-70
2023/05/26 07:23:02;;;;;;;5.60;3.73;;;;;;;23.63;61.38;99563.94;5067196;28;20196;-68
2023/05/26 07:25:29;;;;;;;9.53;3.80;;;;;;;23.81;61.18;99571.44;5067797;28;20198;-68
2023/05/26 07:27:57;;;;;;;12.40;3.90;;;;;;;24.11;59.17;99574.00;5068174;28;20306;-67
2023/05/26 07:30:24;;;;;;;4.10;3.50;;;;;;;24.26;57.78;99567.66;5068253;28;20200;-68
2023/05/26 07:32:51;;;;;;;11.83;4.33;;;;;;;24.26;58.37;99573.88;5068322;28;20225;-68
2023/05/26 07:35:17;;;;;;;17.90;4.43;;;;;;;24.17;57.16;99578.31;5068012;28;20218;-67
2023/05/26 07:37:44;;;;;;;11.57;3.97;;;;;;;24.19;57.86;99581.56;5070785;28;20214;-67
2023/05/26 07:40:12;;;;;;;3.90;3.50;;;;;;;24.26;57.44;99575.81;5074361;28;20563;-67
2023/05/26 07:42:38;;;;;;;24.10;4.23;;;;;;;24.36;57.15;99583.88;5074523;28;20247;-68
2023/05/26 07:45:08;;;;;;;12.57;3.53;;;;;;;24.55;57.02;99585.59;5073212;28;20673;-70
2023/05/26 07:47:35;;;;;;;9.83;3.60;;;;;;;24.71;57.10;99586.34;5074477;28;20251;-67
2023/05/26 07:50:03;;;;;;;14.07;3.90;;;;;;;24.94;55.32;99591.81;5074527;28;20196;-67
2023/05/26 07:52:30;;;;;;;8.40;3.40;;;;;;;25.10;54.63;99586.22;5074321;28;20198;-67
2023/05/26 07:54:56;;;;;;;9.87;3.60;;;;;;;25.08;55.21;99586.50;5074395;28;20191;-68
2023/05/26 07:57:23;;;;;;;4.73;3.67;;;;;;;24.98;56.97;99580.38;5073897;28;20716;-66
2023/05/26 07:59:50;;;;;;;5.67;3.67;;;;;;;24.99;55.20;99570.00;5074223;28;20195;-66
2023/05/26 08:02:18;;;;;;;7.20;3.53;;;;;;;25.22;54.86;99587.44;5073618;28;20194;-67
2023/05/26 08:04:44;;;;;;;6.33;4.00;;;;;;;25.35;53.45;99596.84;5073097;28;20195;-67
2023/05/26 08:07:11;;;;;;;7.97;3.67;;;;;;;25.20;52.89;99592.38;5073587;28;20711;-67
2023/05/26 08:09:38;;;;;;;4.07;3.20;;;;;;;25.18;53.08;99586.41;5073648;28;20956;-67
2023/05/26 08:12:06;;;;;;;5.40;3.60;;;;;;;25.21;53.06;99585.00;5074637;28;20207;-66
2023/05/26 08:14:33;;;;;;;6.37;3.20;;;;;;;25.28;53.04;99580.88;5074274;28;20206;-67
2023/05/26 08:17:00;;;;;;;17.53;4.33;;;;;;;25.30;52.55;99583.28;5074068;28;20219;-66
2023/05/26 08:19:28;;;;;;;8.50;3.20;;;;;;;25.22;52.99;99581.19;5074809;28;20191;-66
2023/05/26 08:21:55;;;;;;;31.17;4.73;;;;;;;25.12;52.05;99582.13;5073862;28;20244;-67
2023/05/26 08:24:22;;;;;;;5.77;3.43;;;;;;;25.03;53.66;99578.38;5073934;28;20199;-68
2023/05/26 08:26:49;;;;;;;4.63;3.50;;;;;;;25.00;52.84;99589.84;5073499;28;20744;-66
2023/05/26 08:29:16;;;;;;;11.63;3.83;;;;;;;24.98;51.79;99591.25;5073959;28;20257;-66
2023/05/26 08:31:43;;;;;;;3.60;3.30;;;;;;;24.91;52.14;99586.94;5074231;28;20203;-66
2023/05/26 08:34:10;;;;;;;10.70;5.53;;;;;;;24.89;56.50;99583.72;5074314;28;20283;-66
2023/05/26 08:36:38;;;;;;;9.93;6.53;;;;;;;24.47;61.90;99569.91;5074416;28;20234;-67
2023/05/26 08:39:04;;;;;;;6.80;6.10;;;;;;;24.07;64.08;99559.38;5074153;28;20194;-66
2023/05/26 08:41:38;;;;;;;6.57;5.90;;;;;;;24.06;64.30;99559.66;5073387;28;20658;-66
2023/05/26 08:44:05;;;;;;;6.70;6.10;;;;;;;23.94;64.35;99560.00;5074200;28;20205;-69
2023/05/26 08:46:33;;;;;;;12.23;6.97;;;;;;;24.04;64.65;99559.13;5073674;28;20219;-68
2023/05/26 08:49:01;;;;;;;7.47;6.27;;;;;;;24.01;64.02;99560.50;5070650;28;20194;-67
2023/05/26 08:51:31;;;;;;;11.43;6.30;;;;;;;24.33;63.90;99562.72;5071182;28;20289;-67
2023/05/26 08:53:59;;;;;;;9.33;6.33;;;;;;;24.64;61.63;99572.25;5070766;28;20272;-68
2023/05/26 08:56:27;;;;;;;9.50;6.20;;;;;;;24.65;60.01;99571.97;5070898;28;20272;-67
2023/05/26 08:58:55;;;;;;;13.13;5.53;;;;;;;24.73;59.83;99574.09;5068623;28;20203;-67
2023/05/26 09:01:22;;;;;;;7.40;5.37;;;;;;;24.61;60.84;99565.50;5070897;28;20305;-68
2023/05/26 09:03:48;;;;;;;9.10;5.63;;;;;;;24.54;60.03;99569.63;5069987;28;20202;-69
2023/05/26 09:06:15;;;;;;;7.00;5.30;;;;;;;24.59;59.57;99564.94;5068951;28;20666;-69
2023/05/26 09:08:42;;;;;;;15.17;5.60;;;;;;;24.60;60.46;99557.59;5069534;28;20195;-66
2023/05/26 09:11:24;;;;;;;11.53;5.40;;;;;;;24.54;60.57;99548.69;5070105;28;20202;-69
2023/05/26 09:13:53;;;;;;;8.10;5.10;;;;;;;24.58;60.37;99549.72;5065550;28;20667;-67
2023/05/26 09:16:23;;;;;;;9.63;5.07;;;;;;;24.68;59.70;99559.72;5066484;28;20685;-70
2023/05/26 09:18:51;;;;;;;6.60;4.47;;;;;;;24.71;60.14;99549.09;5067286;28;20604;-76
2023/05/26 09:21:18;;;;;;;6.83;4.67;;;;;;;24.83;59.54;99540.56;5066156;28;20227;-74
2023/05/26 09:23:46;;;;;;;8.30;4.47;;;;;;;24.95;60.29;99544.50;5069490;28;20226;-68
2023/05/26 09:26:16;;;;;;;12.20;4.53;;;;;;;24.93;58.57;99554.88;5065932;28;20203;-70
2023/05/26 09:28:49;;;;;;;16.60;5.47;;;;;;;25.11;59.30;99541.63;5067991;28;20211;-69
2023/05/26 09:31:16;;;;;;;14.77;5.50;;;;;;;25.32;58.17;99538.41;5067074;28;20191;-70
2023/05/26 09:33:46;;;;;;;9.80;5.80;;;;;;;25.58;57.80;99541.59;5066952;28;20310;-71
2023/05/26 09:36:13;;;;;;;9.73;5.20;;;;;;;25.71;54.58;99535.44;5067363;28;20265;-72
2023/05/26 09:38:42;;;;;;;9.87;5.23;;;;;;;25.93;56.31;99527.50;5066569;28;20254;-69
2023/05/26 09:41:09;;;;;;;8.77;4.00;;;;;;;26.06;52.59;99529.50;5068908;28;20252;-73
2023/05/26 09:43:37;;;;;;;8.23;4.07;;;;;;;26.06;52.54;99533.06;5065327;28;20211;-70
2023/05/26 09:46:08;;;;;;;17.97;5.07;;;;;;;26.41;54.37;99524.28;5066736;28;20964;-68
2023/05/26 09:48:36;;;;;;;8.10;3.97;;;;;;;26.76;48.31;99526.44;5063959;28;20202;-68
2023/05/26 09:51:03;;;;;;;6.50;3.77;;;;;;;27.08;50.19;99517.38;5066805;28;20219;-67
2023/05/26 09:53:30;;;;;;;6.30;3.00;;;;;;;27.35;45.79;99517.38;5066208;28;20258;-67
2023/05/26 09:56:01;;;;;;;6.27;3.03;;;;;;;27.13;45.06;99509.09;5065405;28;20192;-71
2023/05/26 09:58:29;;;;;;;3.87;2.63;;;;;;;26.99;44.99;99492.72;5065792;28;20292;-67
2023/05/26 10:00:58;;;;;;;4.67;2.90;;;;;;;27.34;44.88;99488.47;5066901;28;20255;-69
2023/05/26 10:03:28;;;;;;;10.13;2.57;;;;;;;27.74;42.66;99493.06;5067638;28;20257;-71
2023/05/26 10:05:56;;;;;;;4.17;2.40;;;;;;;27.86;42.22;99474.25;5068360;28;20664;-69
2023/05/26 10:08:23;;;;;;;8.10;2.73;;;;;;;28.02;39.77;99486.41;5069213;28;20204;-68
2023/05/26 10:10:51;;;;;;;4.77;2.27;;;;;;;28.06;40.32;99479.22;5071335;28;20207;-70
2023/05/26 10:13:19;;;;;;;2.23;2.03;;;;;;;28.09;39.42;99470.41;5070823;28;20686;-70
2023/05/26 10:15:46;;;;;;;4.77;2.60;;;;;;;28.08;41.22;99483.25;5071933;28;20254;-68
2023/05/26 10:18:13;;;;;;;4.57;2.40;;;;;;;28.28;40.55;99476.47;5071470;28;20219;-68
2023/05/26 10:20:51;;;;;;;3.00;2.17;;;;;;;28.55;38.38;99481.81;5070587;28;20618;-69
2023/05/26 10:23:22;;;;;;;3.90;2.40;;;;;;;28.51;37.49;99472.63;5070213;28;20187;-68
2023/05/26 10:25:56;;;;;;;5.57;2.73;;;;;;;28.30;39.00;99439.50;5069333;28;20181;-69
2023/05/26 10:28:30;;;;;;;5.57;2.27;;;;;;;28.35;38.53;99449.50;5070223;28;20219;-68
2023/05/26 10:30:59;;;;;;;4.80;1.93;;;;;;;27.98;38.80;99444.44;5070080;28;20672;-69
2023/05/26 10:33:38;;;;;;;16.37;2.93;;;;;;;28.12;39.14;99434.25;5071048;28;20277;-71
2023/05/26 10:36:09;;;;;;;63.07;6.27;;;;;;;28.20;38.65;99439.78;5072062;28;20604;-70
2023/05/26 10:38:43;;;;;;;7.73;2.50;;;;;;;28.35;38.95;99444.88;5072144;28;20265;-69
2023/05/26 10:41:14;;;;;;;3.10;2.00;;;;;;;28.59;37.15;99431.66;5071399;28;20724;-80
2023/05/26 10:43:43;;;;;;;4.83;2.20;;;;;;;28.41;37.79;99427.22;5071895;28;20188;-68
2023/05/26 10:46:10;;;;;;;2.53;2.30;;;;;;;28.09;39.22;99413.84;5070860;28;20239;-69
2023/05/26 10:48:38;;;;;;;3.40;2.03;;;;;;;28.06;39.25;99419.13;5071496;28;20258;-69
2023/05/26 10:51:26;;;;;;;5.60;2.70;;;;;;;28.22;38.57;99418.41;5072515;28;20196;-70
2023/05/26 10:53:56;;;;;;;10.87;2.60;;;;;;;28.18;37.10;99406.50;5072193;28;20200;-69
2023/05/26 10:56:34;;;;;;;2.97;2.27;;;;;;;28.22;37.87;99409.44;5066968;28;20199;-69
2023/05/26 10:59:03;;;;;;;17.20;2.57;;;;;;;28.31;37.92;99399.34;5072233;28;20568;-70
2023/05/26 11:01:31;;;;;;;7.07;2.43;;;;;;;28.39;37.43;99395.84;5064966;28;20196;-68
2023/05/26 11:04:08;;;;;;;36.13;5.37;;;;;;;28.39;37.44;99380.25;5070982;28;20234;-70
2023/05/26 11:06:47;;;;;;;2.67;2.10;;;;;;;28.77;36.92;99383.31;5072087;28;20192;-68
2023/05/26 11:09:15;;;;;;;4.00;1.93;;;;;;;28.68;35.38;99372.38;5071602;28;20622;-69
2023/05/26 11:11:51;;;;;;;2.40;2.00;;;;;;;28.61;35.26;99376.66;5071700;28;20199;-68
2023/05/26 11:14:23;;;;;;;2.27;2.17;;;;;;;28.83;35.86;99371.13;5071858;28;20712;-68
2023/05/26 11:16:50;;;;;;;2.10;2.00;;;;;;;29.03;34.22;99362.34;5071960;28;20245;-68
2023/05/26 11:19:27;;;;;;;5.97;2.67;;;;;;;29.27;34.30;99357.19;5071768;28;20253;-68
2023/05/26 11:21:56;;;;;;;4.93;2.37;;;;;;;29.37;34.43;99351.41;5072081;28;20219;-68
2023/05/26 11:24:23;;;;;;;10.97;2.57;;;;;;;29.36;33.58;99344.34;5072142;28;20237;-68
2023/05/26 11:26:50;;;;;;;1.73;1.63;;;;;;;29.37;33.26;99356.88;5071712;28;20290;-68
2023/05/26 11:29:17;;;;;;;4.33;2.23;;;;;;;29.45;33.77;99347.88;5071794;28;20354;-68
2023/05/26 11:31:48;;;;;;;3.00;2.30;;;;;;;29.36;34.04;99335.31;5069130;28;20300;-68
2023/05/26 11:34:15;;;;;;;1.70;1.60;;;;;;;29.55;32.53;99346.75;5082747;28;20243;-68
2023/05/26 11:36:45;;;;;;;8.20;1.93;;;;;;;29.55;33.38;99331.09;5070474;28;20955;-67